sensor_id;sensor_type;location;lat;lon;timestamp;temperature;humidity
9925;DHT22;5001;51.674;7.868;2023-09-12T15:14:58;26.40;99.90
9925;DHT22;5001;51.674;7.868;2023-09-12T15:17:30;26.40;99.90
9925;DHT22;5001;51.674;7.868;2023-09-12T15:20:03;26.70;99.90
9925;DHT22;5001;51.674;7.868;2023-09-12T15:22:33;26.60;99.90
9925;DHT22;5001;51.674;7.868;2023-09-12T15:25:02;26.50;99.90
9925;DHT22;5001;51.674;7.868;2023-09-12T15:27:29;26.60;99.90
9925;DHT22;5001;51.674;7.868;2023-09-12T15:29:56;26.40;99.90
9925;DHT22;5001;51.674;7.868;2023-09-12T15:32:23;26.30;99.90
9925;DHT22;5001;51.674;7.868;2023-09-12T15:34:50;26.30;99.90
9925;DHT22;5001;51.674;7.868;2023-09-12T15:37:21;26.20;99.90
9925;DHT22;5001;51.674;7.868;2023-09-12T15:39:49;26.00;99.90
9925;DHT22;5001;51.674;7.868;2023-09-12T15:42:16;25.80;99.90
9925;DHT22;5001;51.674;7.868;2023-09-12T15:45:01;25.70;99.90
9925;DHT22;5001;51.674;7.868;2023-09-12T15:47:30;25.30;99.90
9925;DHT22;5001;51.674;7.868;2023-09-12T15:49:58;25.40;99.90
9925;DHT22;5001;51.674;7.868;2023-09-12T15:52:25;25.10;99.90
9925;DHT22;5001;51.674;7.868;2023-09-12T15:54:53;25.10;99.90
9925;DHT22;5001;51.674;7.868;2023-09-12T15:57:21;25.00;99.90
9925;DHT22;5001;51.674;7.868;2023-09-12T15:59:48;25.20;99.90
9925;DHT22;5001;51.674;7.868;2023-09-12T16:02:16;25.20;99.90
9925;DHT22;5001;51.674;7.868;2023-09-12T16:04:43;25.20;99.90
9925;DHT22;5001;51.674;7.868;2023-09-12T16:07:10;25.10;99.90
9925;DHT22;5001;51.674;7.868;2023-09-12T16:09:37;25.20;99.90
9925;DHT22;5001;51.674;7.868;2023-09-12T16:12:05;25.30;99.90
9925;DHT22;5001;51.674;7.868;2023-09-12T16:14:32;25.30;99.90
9925;DHT22;5001;51.674;7.868;2023-09-12T16:16:59;25.40;99.90
9925;DHT22;5001;51.674;7.868;2023-09-12T16:19:26;25.30;99.90
9925;DHT22;5001;51.674;7.868;2023-09-12T16:21:54;25.20;99.90
9925;DHT22;5001;51.674;7.868;2023-09-12T16:24:21;25.30;99.90
9925;DHT22;5001;51.674;7.868;2023-09-12T16:26:49;25.20;99.90
9925;DHT22;5001;51.674;7.868;2023-09-12T16:29:16;25.10;99.90
9925;DHT22;5001;51.674;7.868;2023-09-12T16:31:44;25.10;99.90
9925;DHT22;5001;51.674;7.868;2023-09-12T16:34:11;25.00;99.90
9925;DHT22;5001;51.674;7.868;2023-09-12T16:36:39;25.00;99.90
9925;DHT22;5001;51.674;7.868;2023-09-12T16:39:06;25.00;99.90
9925;DHT22;5001;51.674;7.868;2023-09-12T16:41:34;24.80;99.90
9925;DHT22;5001;51.674;7.868;2023-09-12T16:44:01;24.60;99.90
9925;DHT22;5001;51.674;7.868;2023-09-12T16:46:28;24.60;99.90
9925;DHT22;5001;51.674;7.868;2023-09-12T16:48:55;24.60;99.90
9925;DHT22;5001;51.674;7.868;2023-09-12T16:51:22;24.50;99.90
9925;DHT22;5001;51.674;7.868;2023-09-12T16:53:52;24.60;99.90
9925;DHT22;5001;51.674;7.868;2023-09-12T16:56:20;24.60;99.90
9925;DHT22;5001;51.674;7.868;2023-09-12T16:58:47;24.60;99.90
9925;DHT22;5001;51.674;7.868;2023-09-12T17:01:14;24.40;99.90
9925;DHT22;5001;51.674;7.868;2023-09-12T17:03:43;24.40;99.90
9925;DHT22;5001;51.674;7.868;2023-09-12T17:06:12;24.40;99.90
9925;DHT22;5001;51.674;7.868;2023-09-12T17:08:39;24.40;99.90
9925;DHT22;5001;51.674;7.868;2023-09-12T17:11:06;24.40;99.90
9925;DHT22;5001;51.674;7.868;2023-09-12T17:13:33;24.40;99.90
9925;DHT22;5001;51.674;7.868;2023-09-12T17:16:00;24.30;99.90
9925;DHT22;5001;51.674;7.868;2023-09-12T17:18:27;24.20;99.90
9925;DHT22;5001;51.674;7.868;2023-09-12T17:20:54;24.10;99.90
9925;DHT22;5001;51.674;7.868;2023-09-12T17:23:21;24.00;99.90
9925;DHT22;5001;51.674;7.868;2023-09-12T17:25:48;23.90;99.90
9925;DHT22;5001;51.674;7.868;2023-09-12T17:28:15;23.70;99.90
9925;DHT22;5001;51.674;7.868;2023-09-12T17:30:42;23.60;99.90
9925;DHT22;5001;51.674;7.868;2023-09-12T17:33:09;23.60;99.90
9925;DHT22;5001;51.674;7.868;2023-09-12T17:35:38;23.60;99.90
9925;DHT22;5001;51.674;7.868;2023-09-12T17:38:05;23.50;99.90
9925;DHT22;5001;51.674;7.868;2023-09-12T17:40:32;23.40;99.90
9925;DHT22;5001;51.674;7.868;2023-09-12T17:43:03;23.40;99.90
9925;DHT22;5001;51.674;7.868;2023-09-12T17:45:31;23.30;99.90
9925;DHT22;5001;51.674;7.868;2023-09-12T17:48:01;23.30;99.90
9925;DHT22;5001;51.674;7.868;2023-09-12T17:50:28;23.20;99.90
9925;DHT22;5001;51.674;7.868;2023-09-12T17:52:56;23.20;99.90
9925;DHT22;5001;51.674;7.868;2023-09-12T17:55:23;23.20;99.90
9925;DHT22;5001;51.674;7.868;2023-09-12T17:57:51;23.10;99.90
9925;DHT22;5001;51.674;7.868;2023-09-12T18:00:18;23.00;99.90
9925;DHT22;5001;51.674;7.868;2023-09-12T18:02:47;23.00;99.90
9925;DHT22;5001;51.674;7.868;2023-09-12T18:05:14;23.00;99.90
9925;DHT22;5001;51.674;7.868;2023-09-12T18:07:41;23.00;99.90
9925;DHT22;5001;51.674;7.868;2023-09-12T18:10:09;22.80;99.90
9925;DHT22;5001;51.674;7.868;2023-09-12T18:12:36;22.70;99.90
9925;DHT22;5001;51.674;7.868;2023-09-12T18:15:03;22.60;99.90
9925;DHT22;5001;51.674;7.868;2023-09-12T18:17:30;22.60;99.90
9925;DHT22;5001;51.674;7.868;2023-09-12T18:19:57;22.60;99.90
9925;DHT22;5001;51.674;7.868;2023-09-12T18:22:24;22.60;99.90
9925;DHT22;5001;51.674;7.868;2023-09-12T18:24:51;22.60;99.90
9925;DHT22;5001;51.674;7.868;2023-09-12T18:27:18;22.60;99.90
9925;DHT22;5001;51.674;7.868;2023-09-12T18:29:45;22.60;99.90
9925;DHT22;5001;51.674;7.868;2023-09-12T18:32:12;22.60;99.90
9925;DHT22;5001;51.674;7.868;2023-09-12T18:34:39;22.50;99.90
9925;DHT22;5001;51.674;7.868;2023-09-12T18:37:06;22.50;99.90
9925;DHT22;5001;51.674;7.868;2023-09-12T18:39:36;22.50;99.90
9925;DHT22;5001;51.674;7.868;2023-09-12T18:42:03;22.50;99.90
9925;DHT22;5001;51.674;7.868;2023-09-12T18:44:30;22.50;99.90
9925;DHT22;5001;51.674;7.868;2023-09-12T18:46:57;22.40;99.90
9925;DHT22;5001;51.674;7.868;2023-09-12T18:49:24;22.40;99.90
9925;DHT22;5001;51.674;7.868;2023-09-12T18:51:51;22.30;99.90
9925;DHT22;5001;51.674;7.868;2023-09-12T18:54:22;22.30;99.90
9925;DHT22;5001;51.674;7.868;2023-09-12T18:56:49;22.20;99.90
9925;DHT22;5001;51.674;7.868;2023-09-12T18:59:17;22.20;99.90
9925;DHT22;5001;51.674;7.868;2023-09-12T19:01:44;22.10;99.90
9925;DHT22;5001;51.674;7.868;2023-09-12T19:04:25;22.10;99.90
9925;DHT22;5001;51.674;7.868;2023-09-12T19:06:53;22.00;99.90
9925;DHT22;5001;51.674;7.868;2023-09-12T19:09:20;22.10;99.90
9925;DHT22;5001;51.674;7.868;2023-09-12T19:11:47;22.10;99.90
9925;DHT22;5001;51.674;7.868;2023-09-12T19:14:15;22.10;99.90
9925;DHT22;5001;51.674;7.868;2023-09-12T19:16:43;22.20;99.90
9925;DHT22;5001;51.674;7.868;2023-09-12T19:19:11;22.20;99.90
9925;DHT22;5001;51.674;7.868;2023-09-12T19:21:38;22.20;99.90
9925;DHT22;5001;51.674;7.868;2023-09-12T19:24:05;22.30;99.90
9925;DHT22;5001;51.674;7.868;2023-09-12T19:26:33;22.30;99.90
9925;DHT22;5001;51.674;7.868;2023-09-12T19:29:01;22.30;99.90
9925;DHT22;5001;51.674;7.868;2023-09-12T19:31:29;22.30;99.90
9925;DHT22;5001;51.674;7.868;2023-09-12T19:33:56;22.20;99.90
9925;DHT22;5001;51.674;7.868;2023-09-12T19:36:26;22.10;99.90
9925;DHT22;5001;51.674;7.868;2023-09-12T19:38:57;22.10;99.90
9925;DHT22;5001;51.674;7.868;2023-09-12T19:41:28;22.20;99.90
9925;DHT22;5001;51.674;7.868;2023-09-12T19:43:55;22.20;99.90
9925;DHT22;5001;51.674;7.868;2023-09-12T19:46:23;22.30;99.90
9925;DHT22;5001;51.674;7.868;2023-09-12T19:48:50;22.40;99.90
9925;DHT22;5001;51.674;7.868;2023-09-12T19:51:17;22.40;99.90
9925;DHT22;5001;51.674;7.868;2023-09-12T19:53:44;22.50;99.90
9925;DHT22;5001;51.674;7.868;2023-09-12T19:56:12;22.50;99.90
9925;DHT22;5001;51.674;7.868;2023-09-12T19:58:39;22.40;99.90
9925;DHT22;5001;51.674;7.868;2023-09-12T20:01:06;22.40;99.90
9925;DHT22;5001;51.674;7.868;2023-09-12T20:03:33;22.40;99.90
9925;DHT22;5001;51.674;7.868;2023-09-12T20:06:01;22.40;99.90
9925;DHT22;5001;51.674;7.868;2023-09-12T20:08:28;22.40;99.90
9925;DHT22;5001;51.674;7.868;2023-09-12T20:10:55;22.40;99.90
9925;DHT22;5001;51.674;7.868;2023-09-12T20:13:23;22.40;99.90
9925;DHT22;5001;51.674;7.868;2023-09-12T20:15:50;22.40;99.90
9925;DHT22;5001;51.674;7.868;2023-09-12T20:18:18;22.30;99.90
9925;DHT22;5001;51.674;7.868;2023-09-12T20:20:45;22.30;99.90
9925;DHT22;5001;51.674;7.868;2023-09-12T20:23:15;22.20;99.90
9925;DHT22;5001;51.674;7.868;2023-09-12T20:25:42;22.20;99.90
9925;DHT22;5001;51.674;7.868;2023-09-12T20:28:09;22.20;99.90
9925;DHT22;5001;51.674;7.868;2023-09-12T20:30:38;21.80;99.90
9925;DHT22;5001;51.674;7.868;2023-09-12T20:33:05;21.80;99.90
9925;DHT22;5001;51.674;7.868;2023-09-12T20:35:34;21.60;99.90
9925;DHT22;5001;51.674;7.868;2023-09-12T20:38:03;21.60;99.90
9925;DHT22;5001;51.674;7.868;2023-09-12T20:40:31;21.40;99.90
9925;DHT22;5001;51.674;7.868;2023-09-12T20:42:59;21.30;99.90
9925;DHT22;5001;51.674;7.868;2023-09-12T20:45:26;21.30;99.90
9925;DHT22;5001;51.674;7.868;2023-09-12T20:47:53;21.40;99.90
9925;DHT22;5001;51.674;7.868;2023-09-12T20:50:21;21.50;99.90
9925;DHT22;5001;51.674;7.868;2023-09-12T20:52:56;21.50;99.90
9925;DHT22;5001;51.674;7.868;2023-09-12T20:55:25;21.60;99.90
9925;DHT22;5001;51.674;7.868;2023-09-12T20:57:52;21.70;99.90
9925;DHT22;5001;51.674;7.868;2023-09-12T21:00:19;21.60;99.90
9925;DHT22;5001;51.674;7.868;2023-09-12T21:02:51;21.50;99.90
9925;DHT22;5001;51.674;7.868;2023-09-12T21:05:19;21.40;99.90
9925;DHT22;5001;51.674;7.868;2023-09-12T21:07:45;21.20;99.90
9925;DHT22;5001;51.674;7.868;2023-09-12T21:10:13;20.80;1.00
9925;DHT22;5001;51.674;7.868;2023-09-12T21:12:40;20.60;1.00
9925;DHT22;5001;51.674;7.868;2023-09-12T21:15:08;20.50;1.00
9925;DHT22;5001;51.674;7.868;2023-09-12T21:17:36;20.10;1.00
9925;DHT22;5001;51.674;7.868;2023-09-12T21:20:05;19.80;1.00
9925;DHT22;5001;51.674;7.868;2023-09-12T21:22:33;19.70;1.00
9925;DHT22;5001;51.674;7.868;2023-09-12T21:25:00;19.50;1.00
9925;DHT22;5001;51.674;7.868;2023-09-12T21:27:27;19.50;99.90
9925;DHT22;5001;51.674;7.868;2023-09-12T21:29:54;19.40;99.90
9925;DHT22;5001;51.674;7.868;2023-09-12T21:32:21;19.40;99.90
9925;DHT22;5001;51.674;7.868;2023-09-12T21:34:48;19.50;1.00
9925;DHT22;5001;51.674;7.868;2023-09-12T21:37:15;19.60;1.00
9925;DHT22;5001;51.674;7.868;2023-09-12T21:39:44;19.70;1.00
9925;DHT22;5001;51.674;7.868;2023-09-12T21:42:11;19.80;1.00
9925;DHT22;5001;51.674;7.868;2023-09-12T21:44:45;19.80;99.90
9925;DHT22;5001;51.674;7.868;2023-09-12T21:47:12;20.00;34.30
9925;DHT22;5001;51.674;7.868;2023-09-12T21:49:39;20.00;1.00
9925;DHT22;5001;51.674;7.868;2023-09-12T21:52:06;20.10;26.40
9925;DHT22;5001;51.674;7.868;2023-09-12T21:54:33;20.20;94.50
9925;DHT22;5001;51.674;7.868;2023-09-12T21:57:00;20.40;99.90
9925;DHT22;5001;51.674;7.868;2023-09-12T21:59:27;20.30;16.30
9925;DHT22;5001;51.674;7.868;2023-09-12T22:01:54;20.10;1.00
9925;DHT22;5001;51.674;7.868;2023-09-12T22:04:21;20.00;1.00
9925;DHT22;5001;51.674;7.868;2023-09-12T22:06:48;20.00;1.00
9925;DHT22;5001;51.674;7.868;2023-09-12T22:09:15;19.80;1.00
9925;DHT22;5001;51.674;7.868;2023-09-12T22:11:42;19.70;18.10
9925;DHT22;5001;51.674;7.868;2023-09-12T22:14:09;19.70;91.70
9925;DHT22;5001;51.674;7.868;2023-09-12T22:16:36;19.60;99.90
9925;DHT22;5001;51.674;7.868;2023-09-12T22:19:03;19.50;1.00
9925;DHT22;5001;51.674;7.868;2023-09-12T22:21:30;19.40;1.00
9925;DHT22;5001;51.674;7.868;2023-09-12T22:23:58;19.40;1.00
9925;DHT22;5001;51.674;7.868;2023-09-12T22:26:25;19.30;1.00
9925;DHT22;5001;51.674;7.868;2023-09-12T22:28:52;19.30;1.00
9925;DHT22;5001;51.674;7.868;2023-09-12T22:31:19;19.20;1.00
9925;DHT22;5001;51.674;7.868;2023-09-12T22:33:46;19.20;1.00
9925;DHT22;5001;51.674;7.868;2023-09-12T22:36:15;19.30;1.00
9925;DHT22;5001;51.674;7.868;2023-09-12T22:38:46;19.40;82.80
9925;DHT22;5001;51.674;7.868;2023-09-12T22:41:13;19.30;99.90
9925;DHT22;5001;51.674;7.868;2023-09-12T22:43:40;19.20;99.90
9925;DHT22;5001;51.674;7.868;2023-09-12T22:46:08;19.20;99.90
9925;DHT22;5001;51.674;7.868;2023-09-12T22:48:35;19.20;99.90
9925;DHT22;5001;51.674;7.868;2023-09-12T22:51:02;19.10;1.00
9925;DHT22;5001;51.674;7.868;2023-09-12T22:53:29;19.10;1.00
9925;DHT22;5001;51.674;7.868;2023-09-12T22:55:57;19.10;1.00
9925;DHT22;5001;51.674;7.868;2023-09-12T22:58:23;19.00;1.00
9925;DHT22;5001;51.674;7.868;2023-09-12T23:00:50;18.90;1.00
9925;DHT22;5001;51.674;7.868;2023-09-12T23:03:18;18.80;1.00
9925;DHT22;5001;51.674;7.868;2023-09-12T23:05:45;18.90;1.00
9925;DHT22;5001;51.674;7.868;2023-09-12T23:08:11;19.00;1.00
9925;DHT22;5001;51.674;7.868;2023-09-12T23:10:39;18.80;34.20
9925;DHT22;5001;51.674;7.868;2023-09-12T23:13:06;18.90;89.40
9925;DHT22;5001;51.674;7.868;2023-09-12T23:15:35;18.90;99.90
9925;DHT22;5001;51.674;7.868;2023-09-12T23:18:02;18.90;99.90
9925;DHT22;5001;51.674;7.868;2023-09-12T23:20:31;18.80;1.00
9925;DHT22;5001;51.674;7.868;2023-09-12T23:23:01;18.90;1.00
9925;DHT22;5001;51.674;7.868;2023-09-12T23:25:29;18.90;1.00
9925;DHT22;5001;51.674;7.868;2023-09-12T23:27:56;18.80;1.00
9925;DHT22;5001;51.674;7.868;2023-09-12T23:30:23;18.80;1.00
9925;DHT22;5001;51.674;7.868;2023-09-12T23:32:53;19.00;1.00
9925;DHT22;5001;51.674;7.868;2023-09-12T23:35:20;19.00;1.00
9925;DHT22;5001;51.674;7.868;2023-09-12T23:37:48;18.90;1.00
9925;DHT22;5001;51.674;7.868;2023-09-12T23:40:15;18.80;1.00
9925;DHT22;5001;51.674;7.868;2023-09-12T23:42:42;18.90;1.00
9925;DHT22;5001;51.674;7.868;2023-09-12T23:45:11;18.90;39.00
9925;DHT22;5001;51.674;7.868;2023-09-12T23:47:38;19.00;99.90
9925;DHT22;5001;51.674;7.868;2023-09-12T23:50:06;19.20;99.90
9925;DHT22;5001;51.674;7.868;2023-09-12T23:52:34;19.30;99.90
9925;DHT22;5001;51.674;7.868;2023-09-12T23:55:01;19.20;99.90
9925;DHT22;5001;51.674;7.868;2023-09-12T23:57:28;19.30;99.90
9925;DHT22;5001;51.674;7.868;2023-09-12T23:59:55;19.40;99.90
